Time;durP1;ratioP1;P1;durP2;ratioP2;P2;SDS_P1;SDS_P2;PMS_P1;PMS_P2;Temp;Humidity;BMP_temperature;BMP_pressure;BME280_temperature;BME280_humidity;BME280_pressure;Samples;Min_cycle;Max_cycle;Signal;HPM_P1;HPM_P2
2022/06/08 00:01:39;;;;;;;6.05;1.65;;;14.60;99.90;;;;;;4993550;28;20407;-65
2022/06/08 00:04:06;;;;;;;7.82;1.30;;;14.60;99.90;;;;;;4993357;28;20038;-65
2022/06/08 00:06:32;;;;;;;6.68;1.27;;;14.60;99.90;;;;;;4993593;28;20472;-65
2022/06/08 00:08:58;;;;;;;3.58;0.98;;;14.70;99.90;;;;;;4993449;28;20041;-65
2022/06/08 00:11:24;;;;;;;8.75;1.85;;;14.70;99.90;;;;;;4993678;28;20042;-65
2022/06/08 00:13:50;;;;;;;9.52;1.60;;;;;;;;;;4993555;28;20104;-65
2022/06/08 00:16:17;;;;;;;5.30;1.25;;;14.50;99.90;;;;;;4993666;28;20133;-65
2022/06/08 00:18:44;;;;;;;3.90;1.20;;;14.20;99.90;;;;;;4993824;28;20437;-65
2022/06/08 00:21:12;;;;;;;8.95;1.67;;;14.20;99.90;;;;;;4993519;28;20061;-65
2022/06/08 00:23:38;;;;;;;4.20;0.98;;;14.10;99.90;;;;;;4993355;28;20477;-65
2022/06/08 00:26:04;;;;;;;7.97;1.50;;;14.10;99.90;;;;;;4993300;28;20104;-65
2022/06/08 00:28:31;;;;;;;6.13;1.35;;;14.10;99.90;;;;;;4993310;28;20144;-65
2022/06/08 00:30:58;;;;;;;8.18;1.70;;;14.00;99.90;;;;;;4993419;28;20049;-65
2022/06/08 00:33:23;;;;;;;7.95;1.17;;;13.90;99.90;;;;;;4993183;28;20405;-65
2022/06/08 00:35:49;;;;;;;11.02;1.70;;;13.90;99.90;;;;;;4993187;28;20050;-65
2022/06/08 00:38:15;;;;;;;5.90;1.58;;;14.00;99.90;;;;;;4993288;28;20042;-65
2022/06/08 00:40:47;;;;;;;2.28;0.82;;;14.20;99.90;;;;;;4993008;28;20041;-65
2022/06/08 00:43:14;;;;;;;7.03;1.38;;;14.30;99.90;;;;;;4994137;28;20048;-65
2022/06/08 00:45:40;;;;;;;3.80;1.25;;;14.10;99.90;;;;;;4997104;28;20050;-65
2022/06/08 00:48:07;;;;;;;2.80;0.93;;;13.80;99.90;;;;;;4997269;28;20049;-65
2022/06/08 00:50:44;;;;;;;3.90;1.20;;;13.80;99.90;;;;;;4997180;28;20509;-65
2022/06/08 00:53:13;;;;;;;5.70;1.52;;;13.90;99.90;;;;;;4997058;28;20100;-65
2022/06/08 00:55:41;;;;;;;5.75;1.25;;;13.90;99.90;;;;;;4996949;28;20061;-65
2022/06/08 00:58:29;;;;;;;8.30;1.48;;;13.80;99.90;;;;;;4996999;28;20038;-65
2022/06/08 01:00:55;;;;;;;6.55;1.50;;;13.80;99.90;;;;;;4996758;28;20030;-65
2022/06/08 01:03:22;;;;;;;5.00;1.35;;;13.80;99.90;;;;;;4996826;28;20038;-65
2022/06/08 01:05:58;;;;;;;3.97;1.25;;;13.90;99.90;;;;;;4996825;28;20046;-65
2022/06/08 01:08:39;;;;;;;6.32;1.50;;;14.00;99.90;;;;;;4996965;28;20045;-65
2022/06/08 01:11:10;;;;;;;6.43;1.17;;;14.10;99.90;;;;;;4996636;28;20073;-65
2022/06/08 01:13:38;;;;;;;9.40;1.20;;;14.20;99.90;;;;;;4996348;28;20505;-65
2022/06/08 01:16:07;;;;;;;6.90;1.45;;;14.20;99.90;;;;;;4996418;28;20038;-65
2022/06/08 01:18:34;;;;;;;8.27;1.42;;;14.10;99.90;;;;;;4996350;28;20540;-65
2022/06/08 01:21:18;;;;;;;3.55;1.15;;;14.30;99.90;;;;;;4996326;28;20591;-65
2022/06/08 01:23:45;;;;;;;3.67;0.90;;;14.50;99.90;;;;;;4996426;28;20379;-65
2022/06/08 01:26:20;;;;;;;6.80;1.55;;;14.60;99.90;;;;;;4996241;28;20081;-65
2022/06/08 01:29:06;;;;;;;5.60;2.10;;;14.50;99.90;;;;;;4996514;28;20046;-65
2022/06/08 01:31:44;;;;;;;4.30;1.20;;;14.30;99.90;;;;;;4996482;28;20042;-65
2022/06/08 01:34:37;;;;;;;6.40;1.38;;;14.00;99.90;;;;;;4996345;28;20050;-65
2022/06/08 01:37:14;;;;;;;7.10;1.38;;;14.10;99.90;;;;;;4995825;28;20580;-65
2022/06/08 01:40:09;;;;;;;6.95;1.27;;;14.20;99.90;;;;;;4995749;28;20030;-65
2022/06/08 01:42:37;;;;;;;7.47;1.17;;;14.40;99.90;;;;;;4995960;28;20041;-65
2022/06/08 01:45:28;;;;;;;4.50;1.10;;;14.40;99.90;;;;;;4995943;28;20065;-65
2022/06/08 01:48:18;;;;;;;10.35;1.77;;;14.60;99.90;;;;;;4995805;28;20046;-65
2022/06/08 01:51:13;;;;;;;14.00;2.00;;;14.60;99.90;;;;;;4983580;28;20097;-65
2022/06/08 01:54:10;;;;;;;6.65;1.33;;;14.60;99.90;;;;;;4923387;28;20111;-65
2022/06/08 01:56:59;;;;;;;10.88;1.38;;;14.30;99.90;;;;;;4975972;28;20556;-65
2022/06/08 01:59:57;;;;;;;6.97;1.83;;;14.20;99.90;;;;;;4976135;28;20123;-65
2022/06/08 02:02:39;;;;;;;5.15;1.52;;;14.20;99.90;;;;;;4976114;28;20054;-65
2022/06/08 02:05:33;;;;;;;3.55;0.93;;;14.10;99.90;;;;;;4976178;28;20068;-65
2022/06/08 02:08:08;;;;;;;6.53;1.30;;;14.00;99.90;;;;;;4979648;28;20109;-65
2022/06/08 02:10:51;;;;;;;4.38;1.23;;;14.10;99.90;;;;;;4995660;28;20129;-65
2022/06/08 02:13:22;;;;;;;4.70;1.25;;;14.20;99.90;;;;;;4995495;28;20097;-65
2022/06/08 02:15:50;;;;;;;;;;;14.40;99.90;;;;;;4995953;28;20050;-65
2022/06/08 02:18:42;;;;;;;5.10;1.30;;;14.50;99.90;;;;;;4995499;28;19916;-65
2022/06/08 02:21:26;;;;;;;5.13;1.17;;;14.70;99.90;;;;;;4986495;28;20047;-65
2022/06/08 02:24:00;;;;;;;8.70;1.95;;;14.90;99.90;;;;;;4975539;28;20130;-65
2022/06/08 02:26:48;;;;;;;4.25;1.13;;;14.50;99.90;;;;;;4975552;28;20034;-65
2022/06/08 02:29:22;;;;;;;4.22;1.17;;;14.40;99.90;;;;;;4965109;28;20039;-65
2022/06/08 02:31:56;;;;;;;6.38;1.27;;;14.40;99.90;;;;;;4975787;28;20075;-65
2022/06/08 02:34:29;;;;;;;11.30;1.45;;;14.20;99.90;;;;;;4975681;28;20055;-65
2022/06/08 02:37:11;;;;;;;5.13;1.17;;;13.90;99.90;;;;;;4975482;28;20045;-65
2022/06/08 02:39:55;;;;;;;5.03;1.17;;;13.90;99.90;;;;;;4975481;28;20077;-65
2022/06/08 02:42:40;;;;;;;5.38;1.30;;;14.10;99.90;;;;;;4975633;28;20039;-65
2022/06/08 02:45:12;;;;;;;5.22;1.10;;;14.20;99.90;;;;;;4975584;28;20049;-65
2022/06/08 02:47:40;;;;;;;9.25;1.50;;;14.20;99.90;;;;;;4975683;28;20047;-65
2022/06/08 02:50:14;;;;;;;5.15;1.15;;;14.10;99.90;;;;;;4975550;28;20054;-65
2022/06/08 02:52:43;;;;;;;3.10;1.00;;;14.10;99.90;;;;;;4975440;28;20042;-65
2022/06/08 02:55:26;;;;;;;5.78;1.23;;;14.00;99.90;;;;;;4975110;28;20443;-65
2022/06/08 02:58:01;;;;;;;3.83;1.00;;;14.10;99.90;;;;;;4974942;28;20074;-65
2022/06/08 03:00:45;;;;;;;4.20;1.05;;;14.30;99.90;;;;;;4974951;28;20046;-65
2022/06/08 03:03:13;;;;;;;4.60;0.90;;;14.30;99.90;;;;;;4974850;28;20043;-65
2022/06/08 03:05:49;;;;;;;3.80;1.02;;;14.50;99.90;;;;;;4975044;28;20077;-65
2022/06/08 03:08:23;;;;;;;6.25;1.08;;;14.50;99.90;;;;;;4974327;28;20046;-65
2022/06/08 03:10:50;;;;;;;4.65;1.35;;;14.50;99.90;;;;;;4977649;28;20118;-65
2022/06/08 03:13:32;;;;;;;6.32;1.25;;;14.50;99.90;;;;;;4992244;28;20393;-65
2022/06/08 03:16:02;;;;;;;7.80;1.98;;;14.50;99.90;;;;;;4994020;28;20413;-65
2022/06/08 03:18:28;;;;;;;6.18;1.58;;;14.60;99.90;;;;;;4994216;28;20044;-65
2022/06/08 03:20:55;;;;;;;4.35;1.45;;;14.50;99.90;;;;;;4993961;28;20046;-65
2022/06/08 03:23:22;;;;;;;4.63;1.35;;;14.30;99.90;;;;;;4994416;28;20042;-65
2022/06/08 03:25:48;;;;;;;6.00;1.20;;;14.40;99.90;;;;;;4994400;28;20045;-65
2022/06/08 03:28:15;;;;;;;8.07;1.33;;;14.30;99.90;;;;;;4994229;28;20045;-65
2022/06/08 03:30:45;;;;;;;4.93;1.20;;;14.40;99.90;;;;;;4994234;28;20042;-65
2022/06/08 03:33:12;;;;;;;4.45;1.25;;;14.50;99.90;;;;;;4994239;28;20042;-65
2022/06/08 03:35:39;;;;;;;5.90;1.45;;;14.30;99.90;;;;;;4993971;28;20054;-65
2022/06/08 03:38:06;;;;;;;9.10;1.55;;;14.30;99.90;;;;;;4994074;28;20042;-65
2022/06/08 03:40:32;;;;;;;5.50;1.55;;;14.30;99.90;;;;;;4994027;28;20046;-65
2022/06/08 03:42:58;;;;;;;3.92;0.98;;;14.30;99.90;;;;;;4993937;28;20066;-65
2022/06/08 03:45:28;;;;;;;5.45;1.00;;;14.00;99.90;;;;;;4993997;28;20038;-65
2022/06/08 03:47:54;;;;;;;6.82;1.48;;;13.80;99.90;;;;;;4994227;28;20096;-65
2022/06/08 03:50:28;;;;;;;3.78;1.20;;;13.70;99.90;;;;;;4993884;28;20046;-65
2022/06/08 03:53:03;;;;;;;3.35;0.95;;;13.60;99.90;;;;;;4993617;28;20038;-65
2022/06/08 03:55:31;;;;;;;4.80;1.20;;;13.60;99.90;;;;;;4993427;28;20050;-65
2022/06/08 03:57:58;;;;;;;5.95;1.40;;;13.50;99.90;;;;;;4986802;28;20034;-65
2022/06/08 04:00:24;;;;;;;5.63;1.08;;;13.60;99.90;;;;;;4974057;28;20069;-65
2022/06/08 04:02:50;;;;;;;7.80;1.35;;;13.80;99.90;;;;;;4974369;28;20125;-65
2022/06/08 04:05:17;;;;;;;5.78;1.02;;;14.00;99.90;;;;;;4974196;28;20098;-65
2022/06/08 04:07:42;;;;;;;8.45;1.73;;;14.00;99.90;;;;;;4974257;28;20100;-65
2022/06/08 04:10:09;;;;;;;6.03;1.30;;;14.20;99.90;;;;;;4974153;28;20126;-65
2022/06/08 04:12:35;;;;;;;11.70;2.17;;;14.10;99.90;;;;;;4974582;28;20039;-65
2022/06/08 04:15:02;;;;;;;4.13;1.35;;;14.10;99.90;;;;;;4974098;28;20058;-65
2022/06/08 04:17:28;;;;;;;4.78;1.33;;;14.20;99.90;;;;;;4974748;28;20038;-65
2022/06/08 04:19:54;;;;;;;7.88;1.50;;;14.20;99.90;;;;;;4980683;28;20038;-65
2022/06/08 04:22:21;;;;;;;4.20;1.20;;;14.20;99.90;;;;;;4992625;28;20033;-65
2022/06/08 04:24:48;;;;;;;8.35;2.13;;;14.20;99.90;;;;;;4999790;28;20054;-65
2022/06/08 04:27:14;;;;;;;8.30;1.30;;;14.10;99.90;;;;;;4999967;28;20034;-65
2022/06/08 04:29:40;;;;;;;4.85;1.48;;;14.00;99.90;;;;;;4999979;28;20108;-65
2022/06/08 04:32:09;;;;;;;4.82;1.15;;;13.90;99.90;;;;;;5000053;28;20102;-65
2022/06/08 04:34:36;;;;;;;7.10;1.17;;;13.80;99.90;;;;;;4994755;28;20051;-65
2022/06/08 04:37:03;;;;;;;7.55;1.65;;;13.80;99.90;;;;;;4980285;28;20050;-65
2022/06/08 04:39:29;;;;;;;5.75;1.35;;;13.80;99.90;;;;;;4980201;28;20047;-65
2022/06/08 04:41:56;;;;;;;11.80;2.13;;;13.80;99.90;;;;;;4980410;28;20545;-65
2022/06/08 04:44:22;;;;;;;4.53;1.38;;;13.80;99.90;;;;;;4980410;28;20047;-65
2022/06/08 04:46:47;;;;;;;6.10;1.05;;;13.90;99.90;;;;;;4980180;28;20077;-65
2022/06/08 04:49:14;;;;;;;6.25;1.20;;;14.00;99.90;;;;;;4980027;28;20122;-65
2022/06/08 04:51:40;;;;;;;7.53;1.30;;;14.00;99.90;;;;;;4980363;28;20066;-65
2022/06/08 04:54:05;;;;;;;6.03;1.55;;;14.00;99.90;;;;;;4980259;28;20089;-65
2022/06/08 04:56:31;;;;;;;8.48;1.75;;;14.00;99.90;;;;;;4980244;28;20058;-65
2022/06/08 04:58:57;;;;;;;6.00;1.20;;;14.10;99.90;;;;;;4980346;28;20042;-65
2022/06/08 05:01:23;;;;;;;4.82;1.00;;;14.30;99.90;;;;;;4980129;28;20130;-65
2022/06/08 05:03:49;;;;;;;4.25;1.13;;;14.60;99.90;;;;;;4980040;28;20054;-65
2022/06/08 05:06:15;;;;;;;8.35;1.25;;;14.80;99.90;;;;;;4979974;28;20498;-65
2022/06/08 05:08:41;;;;;;;8.20;1.50;;;15.00;99.90;;;;;;4980133;28;20066;-65
2022/06/08 05:11:07;;;;;;;6.20;1.42;;;15.10;99.90;;;;;;4979998;28;20038;-65
2022/06/08 05:13:34;;;;;;;5.32;1.63;;;15.30;99.90;;;;;;4980023;28;20053;-65
2022/06/08 05:16:01;;;;;;;8.15;1.48;;;15.30;99.90;;;;;;4980017;28;20047;-65
2022/06/08 05:18:27;;;;;;;7.10;1.20;;;15.30;99.90;;;;;;4979912;28;20045;-65
2022/06/08 05:20:54;;;;;;;6.18;1.20;;;15.20;99.90;;;;;;4979889;28;20540;-65
2022/06/08 05:23:37;;;;;;;7.38;1.77;;;15.20;99.90;;;;;;4979852;28;20498;-65
2022/06/08 05:26:03;;;;;;;4.05;1.30;;;15.10;99.90;;;;;;4986597;28;20070;-64
2022/06/08 05:28:29;;;;;;;6.15;2.10;;;15.10;99.90;;;;;;4999269;28;20058;-64
2022/06/08 05:30:56;;;;;;;9.18;1.98;;;15.20;99.90;;;;;;4995665;28;20182;-64
2022/06/08 05:33:24;;;;;;;5.25;1.55;;;15.30;99.90;;;;;;4996447;28;20046;-64
2022/06/08 05:35:50;;;;;;;5.72;1.48;;;15.50;99.90;;;;;;4996256;28;20050;-65
2022/06/08 05:38:16;;;;;;;6.82;1.33;;;15.60;99.90;;;;;;4995786;28;20042;-65
2022/06/08 05:40:42;;;;;;;9.07;1.83;;;15.80;99.90;;;;;;4996070;28;20105;-64
2022/06/08 05:43:10;;;;;;;4.32;1.02;;;15.90;99.90;;;;;;4995226;28;20038;-63
2022/06/08 05:45:38;;;;;;;2.42;0.95;;;16.00;99.90;;;;;;4995348;28;20042;-64
2022/06/08 05:48:05;;;;;;;7.95;2.15;;;16.10;99.90;;;;;;4995425;28;20038;-64
2022/06/08 05:50:32;;;;;;;2.28;0.95;;;16.20;99.90;;;;;;4995503;28;20407;-64
2022/06/08 05:52:58;;;;;;;5.05;1.58;;;16.10;99.90;;;;;;4996012;28;20046;-64
2022/06/08 05:55:25;;;;;;;8.55;1.48;;;16.20;99.90;;;;;;4995910;28;20060;-64
2022/06/08 05:57:51;;;;;;;8.57;1.30;;;16.00;99.90;;;;;;4995762;28;20030;-64
2022/06/08 06:00:23;;;;;;;6.13;1.77;;;16.00;99.90;;;;;;4995479;28;20047;-64
2022/06/08 06:02:49;;;;;;;3.97;1.48;;;15.90;99.90;;;;;;4982819;28;20522;-65
2022/06/08 06:05:18;;;;;;;5.53;1.10;;;15.80;99.90;;;;;;4975873;28;20657;-65
2022/06/08 06:07:45;;;;;;;5.13;1.20;;;16.00;99.90;;;;;;4981564;28;20049;-65
2022/06/08 06:10:11;;;;;;;5.15;1.45;;;16.40;99.90;;;;;;4995490;28;20124;-65
2022/06/08 06:12:37;;;;;;;6.22;1.60;;;16.80;99.90;;;;;;4995579;28;20074;-65
2022/06/08 06:15:04;;;;;;;4.20;1.13;;;16.80;99.90;;;;;;4995306;28;20073;-65
2022/06/08 06:17:30;;;;;;;8.52;1.10;;;16.80;99.90;;;;;;4994133;28;20505;-64
2022/06/08 06:19:57;;;;;;;5.03;1.40;;;17.00;99.90;;;;;;4995209;28;20046;-65
2022/06/08 06:22:23;;;;;;;4.45;1.02;;;17.00;99.90;;;;;;4995495;28;20038;-64
2022/06/08 06:24:49;;;;;;;4.40;1.15;;;17.00;99.90;;;;;;4995288;28;20052;-65
2022/06/08 06:27:14;;;;;;;3.85;1.10;;;17.10;99.90;;;;;;4995361;28;20412;-65
2022/06/08 06:29:40;;;;;;;5.97;1.40;;;17.60;99.90;;;;;;4995305;28;20046;-64
2022/06/08 06:32:11;;;;;;;3.67;1.15;;;17.70;99.90;;;;;;4989616;28;20121;-65
2022/06/08 06:34:37;;;;;;;4.13;1.00;;;17.90;99.90;;;;;;4992780;28;20157;-64
2022/06/08 06:37:03;;;;;;;6.85;1.42;;;17.70;99.90;;;;;;4993835;28;20459;-65
2022/06/08 06:39:29;;;;;;;7.82;1.48;;;17.70;99.90;;;;;;4994665;28;20046;-64
2022/06/08 06:41:59;;;;;;;7.63;1.25;;;17.50;99.90;;;;;;4994958;28;20034;-64
2022/06/08 06:44:25;;;;;;;6.05;1.20;;;17.60;99.90;;;;;;4994492;28;20057;-64
2022/06/08 06:46:51;;;;;;;2.95;1.02;;;17.50;99.90;;;;;;4995197;28;20399;-64
2022/06/08 06:49:17;;;;;;;4.97;1.10;;;17.40;99.90;;;;;;4995170;28;20074;-65
2022/06/08 06:51:43;;;;;;;3.67;1.13;;;17.50;99.90;;;;;;4994908;28;20513;-64
2022/06/08 06:54:11;;;;;;;7.97;1.33;;;17.60;99.90;;;;;;4994863;28;20122;-65
2022/06/08 06:56:37;;;;;;;7.47;1.20;;;17.60;99.90;;;;;;4994783;28;20034;-65
2022/06/08 06:59:04;;;;;;;3.92;1.15;;;;;;;;;;4994517;28;20049;-65
2022/06/08 07:01:30;;;;;;;5.85;1.00;;;17.70;99.90;;;;;;4994254;28;20045;-64
2022/06/08 07:03:57;;;;;;;5.32;1.35;;;17.50;99.90;;;;;;4994475;28;20111;-65
2022/06/08 07:06:23;;;;;;;6.32;1.60;;;17.40;99.90;;;;;;4994537;28;20046;-64
2022/06/08 07:08:49;;;;;;;4.22;1.15;;;17.30;99.90;;;;;;4994283;28;20153;-65
2022/06/08 07:14:02;;;;;;;6.55;1.10;;;17.10;99.90;;;;;;4984526;28;20086;-64
2022/06/08 07:16:28;;;;;;;3.53;1.17;;;17.20;99.90;;;;;;4992258;28;20050;-64
2022/06/08 07:18:54;;;;;;;3.05;0.90;;;17.20;99.90;;;;;;4992577;28;20029;-64
2022/06/08 07:21:20;;;;;;;4.22;1.05;;;17.30;99.90;;;;;;4993598;28;20042;-64
2022/06/08 07:23:45;;;;;;;6.60;1.40;;;17.50;99.90;;;;;;4993118;28;20034;-64
2022/06/08 07:26:12;;;;;;;4.65;1.40;;;17.50;99.90;;;;;;4993882;28;20042;-64
2022/06/08 07:28:38;;;;;;;5.40;1.17;;;17.60;99.90;;;;;;4994281;28;20505;-64
2022/06/08 07:31:05;;;;;;;8.05;1.55;;;17.60;99.90;;;;;;4993924;28;20049;-64
2022/06/08 07:33:33;;;;;;;6.68;1.23;;;17.60;99.90;;;;;;4993846;28;20042;-64
2022/06/08 07:36:00;;;;;;;6.43;1.52;;;17.70;99.90;;;;;;4993702;28;20050;-64
2022/06/08 07:38:26;;;;;;;4.40;1.83;;;18.60;99.90;;;;;;4993637;28;20072;-65
2022/06/08 07:40:52;;;;;;;8.93;1.80;;;17.90;99.90;;;;;;4993491;28;20101;-65
2022/06/08 07:43:19;;;;;;;11.10;2.00;;;18.00;99.90;;;;;;4983603;28;20105;-63
2022/06/08 07:45:45;;;;;;;8.32;1.95;;;18.10;99.90;;;;;;4983202;28;20050;-64
2022/06/08 07:50:55;;;;;;;8.68;1.67;;;18.10;99.90;;;;;;4993809;28;20044;-65
2022/06/08 07:53:21;;;;;;;6.28;1.55;;;18.10;99.90;;;;;;4993421;28;20049;-64
2022/06/08 07:55:47;;;;;;;6.50;1.63;;;18.20;99.90;;;;;;4993685;28;20054;-64
2022/06/08 07:58:13;;;;;;;5.22;1.92;;;18.00;99.90;;;;;;4993300;28;20109;-64
2022/06/08 08:00:43;;;;;;;6.55;1.65;;;17.80;99.90;;;;;;4993884;28;20378;-65
2022/06/08 08:03:10;;;;;;;10.48;1.85;;;17.70;99.90;;;;;;4990740;28;20517;-64
2022/06/08 08:05:35;;;;;;;7.43;1.88;;;17.70;99.90;;;;;;4991043;28;20506;-64
2022/06/08 08:08:01;;;;;;;11.02;1.77;;;17.80;99.90;;;;;;4990769;28;20129;-64
2022/06/08 08:10:27;;;;;;;6.32;1.55;;;17.60;99.90;;;;;;4988750;28;20049;-64
2022/06/08 08:12:55;;;;;;;5.07;1.38;;;18.10;99.90;;;;;;4990152;28;20852;-64
2022/06/08 08:15:23;;;;;;;8.23;1.55;;;17.50;99.90;;;;;;4989975;28;20463;-64
2022/06/08 08:17:49;;;;;;;7.82;1.77;;;17.20;99.90;;;;;;4989755;28;20057;-63
2022/06/08 08:20:16;;;;;;;5.88;1.55;;;17.20;99.90;;;;;;4987035;28;20445;-64
2022/06/08 08:22:42;;;;;;;8.63;2.22;;;17.00;99.90;;;;;;4991071;28;20045;-63
2022/06/08 08:25:11;;;;;;;5.18;1.10;;;16.90;99.90;;;;;;4991207;28;20038;-64
2022/06/08 08:27:37;;;;;;;4.80;1.10;;;16.80;99.90;;;;;;4991108;28;20073;-64
2022/06/08 08:30:05;;;;;;;4.80;1.10;;;16.80;99.90;;;;;;4990616;28;20505;-64
2022/06/08 08:32:30;;;;;;;8.30;1.42;;;16.80;99.90;;;;;;4991177;28;20132;-65
2022/06/08 08:34:56;;;;;;;5.13;1.35;;;16.90;99.90;;;;;;4991611;28;20513;-64
2022/06/08 08:37:22;;;;;;;5.80;1.52;;;17.00;99.90;;;;;;4991105;28;20494;-64
2022/06/08 08:39:48;;;;;;;5.40;1.73;;;16.90;99.90;;;;;;4990926;28;20049;-64
2022/06/08 08:42:23;;;;;;;5.60;1.75;;;16.90;99.90;;;;;;4990617;28;20043;-63
2022/06/08 08:44:58;;;;;;;7.95;1.60;;;17.00;99.90;;;;;;4990937;28;20038;-64
2022/06/08 08:47:29;;;;;;;11.75;1.83;;;17.00;99.90;;;;;;4991151;28;20129;-64
2022/06/08 08:50:22;;;;;;;5.60;1.55;;;16.80;99.90;;;;;;4990885;28;20050;-65
2022/06/08 08:53:05;;;;;;;6.65;1.95;;;16.80;99.90;;;;;;4989621;28;20038;-64
2022/06/08 08:55:40;;;;;;;6.03;1.92;;;16.90;99.90;;;;;;4991113;28;20054;-64
2022/06/08 08:58:16;;;;;;;4.45;1.77;;;16.90;99.90;;;;;;4990966;28;20121;-64
2022/06/08 09:00:56;;;;;;;6.25;1.65;;;17.00;99.90;;;;;;4990833;28;20077;-64
2022/06/08 09:03:25;;;;;;;6.05;1.60;;;17.00;99.90;;;;;;4971788;28;20126;-64
2022/06/08 09:05:54;;;;;;;4.38;1.67;;;16.70;99.90;;;;;;4973108;28;20788;-64
2022/06/08 09:08:22;;;;;;;6.38;1.95;;;16.60;99.90;;;;;;4974852;28;20038;-64
2022/06/08 09:10:49;;;;;;;7.95;1.60;;;16.70;99.90;;;;;;4974610;28;20055;-64
2022/06/08 09:13:46;;;;;;;5.97;2.05;;;16.60;99.90;;;;;;4974596;28;20147;-64
2022/06/08 09:16:27;;;;;;;4.97;1.63;;;16.70;99.90;;;;;;4974951;28;20414;-64
2022/06/08 09:18:53;;;;;;;5.82;1.52;;;16.70;99.90;;;;;;4974741;28;20170;-64
2022/06/08 09:21:50;;;;;;;7.82;1.70;;;16.50;99.90;;;;;;4974700;28;20120;-64
2022/06/08 09:24:27;;;;;;;5.85;1.77;;;16.60;99.90;;;;;;4978552;28;20042;-64
2022/06/08 09:26:57;;;;;;;7.55;1.70;;;16.40;99.90;;;;;;4994227;28;20508;-64
2022/06/08 09:29:29;;;;;;;9.82;2.25;;;16.40;99.90;;;;;;4994307;28;20073;-64
2022/06/08 09:31:55;;;;;;;5.85;1.80;;;16.30;99.90;;;;;;4994140;28;20141;-64
2022/06/08 09:34:23;;;;;;;4.90;1.83;;;16.50;99.90;;;;;;4994046;28;20401;-64
2022/06/08 09:37:12;;;;;;;6.68;1.83;;;16.80;99.90;;;;;;4994194;28;20050;-64
2022/06/08 09:39:44;;;;;;;7.88;1.70;;;17.20;99.90;;;;;;4982204;28;20058;-64
2022/06/08 09:42:34;;;;;;;;;;;17.10;99.90;;;;;;4994429;28;20509;-63
2022/06/08 09:45:18;;;;;;;5.82;1.40;;;17.10;99.90;;;;;;4986460;28;19910;-64
2022/06/08 09:53:54;;;;;;;8.48;1.90;;;16.90;99.90;;;;;;4974100;28;20419;-64
2022/06/08 09:56:41;;;;;;;5.40;1.40;;;17.00;99.90;;;;;;4982635;28;20413;-64
2022/06/08 09:59:19;;;;;;;3.80;1.63;;;17.20;99.90;;;;;;4987817;28;20038;-64
2022/06/08 10:02:13;;;;;;;6.47;2.42;;;17.60;99.90;;;;;;4984427;28;20045;-64
2022/06/08 10:05:09;;;;;;;5.68;2.40;;;17.70;99.90;;;;;;4990740;28;20049;-64
2022/06/08 10:08:03;;;;;;;6.18;2.53;;;17.90;99.90;;;;;;4982444;28;20042;-64
2022/06/08 10:10:34;;;;;;;8.00;1.90;;;17.80;99.90;;;;;;4975381;28;20042;-65
2022/06/08 10:13:07;;;;;;;5.65;1.80;;;17.90;99.90;;;;;;4980356;28;20054;-64
2022/06/08 10:15:45;;;;;;;7.00;1.98;;;17.80;99.90;;;;;;4984122;28;20057;-65
2022/06/08 10:18:27;;;;;;;4.03;1.58;;;17.90;99.90;;;;;;4992736;28;20034;-65
2022/06/08 10:21:27;;;;;;;6.32;2.17;;;18.00;99.90;;;;;;4992932;28;20077;-64
2022/06/08 10:24:05;;;;;;;7.82;1.77;;;18.00;99.90;;;;;;4960914;28;20041;-65
2022/06/08 10:26:40;;;;;;;4.97;1.75;;;18.10;99.90;;;;;;4988116;28;20077;-64
2022/06/08 10:29:21;;;;;;;7.45;2.28;;;17.90;99.90;;;;;;4979937;28;20045;-64
2022/06/08 10:32:14;;;;;;;5.28;1.60;;;17.90;99.90;;;;;;4983450;28;20069;-65
2022/06/08 10:34:40;;;;;;;6.03;1.80;;;18.00;99.90;;;;;;4983357;28;20065;-65
2022/06/08 10:37:14;;;;;;;4.40;1.80;;;18.00;99.90;;;;;;4987528;28;20073;-65
2022/06/08 10:39:42;;;;;;;7.57;2.08;;;20.20;99.90;;;;;;4992765;28;20181;-66
2022/06/08 10:44:58;;;;;;;5.70;1.85;;;18.20;99.90;;;;;;4992883;28;20037;-66
2022/06/08 10:47:34;;;;;;;5.65;2.15;;;17.90;99.90;;;;;;4992632;28;20053;-65
2022/06/08 10:50:00;;;;;;;3.97;1.77;;;17.80;99.90;;;;;;4993264;28;20180;-65
2022/06/08 10:52:30;;;;;;;7.75;1.90;;;18.00;99.90;;;;;;4993127;28;20125;-65
2022/06/08 10:55:13;;;;;;;3.38;1.65;;;18.00;99.90;;;;;;4992307;28;20046;-65
2022/06/08 10:58:03;;;;;;;4.68;1.60;;;17.90;99.90;;;;;;4992643;28;20038;-66
2022/06/08 11:00:54;;;;;;;5.50;1.77;;;17.60;99.90;;;;;;4994031;28;20097;-65
2022/06/08 11:03:22;;;;;;;;;;;17.90;99.90;;;;;;4994856;28;20277;-66
2022/06/08 11:05:48;;;;;;;7.32;2.00;;;17.90;99.90;;;;;;4979008;28;19917;-67
2022/06/08 11:08:18;;;;;;;7.32;2.63;;;17.80;99.90;;;;;;4978171;28;20043;-66
2022/06/08 11:10:44;;;;;;;6.83;3.07;;;17.60;99.90;;;;;;4977100;28;20046;-65
2022/06/08 11:13:22;;;;;;;5.50;2.47;;;17.60;99.90;;;;;;4990706;28;20150;-65
2022/06/08 11:15:59;;;;;;;14.93;2.47;;;17.50;99.90;;;;;;4991160;28;20057;-66
2022/06/08 11:18:35;;;;;;;6.05;2.28;;;17.40;99.90;;;;;;4992037;28;20039;-66
2022/06/08 11:21:03;;;;;;;9.80;2.58;;;17.10;99.90;;;;;;4992468;28;20042;-66
2022/06/08 11:23:41;;;;;;;6.07;2.28;;;17.10;99.90;;;;;;4992103;28;20129;-64
2022/06/08 11:26:28;;;;;;;6.95;2.42;;;17.20;99.90;;;;;;4990295;28;20041;-65
2022/06/08 11:29:22;;;;;;;12.50;2.33;;;17.20;99.90;;;;;;4990812;28;20042;-64
2022/06/08 11:31:54;;;;;;;6.30;2.17;;;17.40;99.90;;;;;;4989771;28;20041;-65
2022/06/08 11:34:20;;;;;;;6.82;2.80;;;17.50;99.90;;;;;;4990058;28;20414;-65
2022/06/08 11:37:14;;;;;;;6.13;2.30;;;17.40;99.90;;;;;;4991215;28;20044;-65
2022/06/08 11:39:43;;;;;;;7.90;2.35;;;17.50;99.90;;;;;;4991527;28;20034;-65
2022/06/08 11:42:27;;;;;;;7.55;2.53;;;17.70;99.90;;;;;;4991416;28;20045;-65
2022/06/08 11:45:14;;;;;;;6.93;2.50;;;17.90;99.90;;;;;;4990107;28;20061;-65
2022/06/08 11:47:50;;;;;;;6.55;2.55;;;18.30;99.90;;;;;;4991900;28;20157;-65
2022/06/08 11:50:22;;;;;;;5.03;1.60;;;18.40;99.90;;;;;;4986920;28;20038;-65
2022/06/08 11:53:01;;;;;;;6.15;1.48;;;18.50;99.90;;;;;;4973776;28;20042;-65
2022/06/08 11:55:29;;;;;;;4.53;2.00;;;18.80;99.90;;;;;;4972189;28;20510;-65
2022/06/08 11:58:16;;;;;;;5.07;1.80;;;19.00;99.90;;;;;;4972459;28;20047;-65
2022/06/08 12:00:56;;;;;;;3.75;1.58;;;19.20;99.90;;;;;;4971801;28;20039;-65
2022/06/08 12:03:42;;;;;;;1.38;0.90;;;19.30;99.90;;;;;;4973507;28;20043;-65
2022/06/08 12:06:33;;;;;;;1.40;0.90;;;19.30;99.90;;;;;;4973644;28;20531;-66
2022/06/08 12:09:20;;;;;;;2.38;0.90;;;19.10;99.90;;;;;;4972457;28;20054;-65
2022/06/08 12:11:50;;;;;;;3.88;1.10;;;19.10;99.90;;;;;;4971347;28;20138;-66
2022/06/08 12:14:34;;;;;;;4.43;1.23;;;19.40;99.90;;;;;;4974217;28;20050;-65
2022/06/08 12:17:03;;;;;;;2.20;1.08;;;19.80;99.90;;;;;;4972384;28;20069;-65
2022/06/08 12:19:39;;;;;;;3.08;1.55;;;20.00;99.90;;;;;;4972379;28;20078;-66
2022/06/08 12:22:16;;;;;;;2.35;0.88;;;19.70;99.90;;;;;;4988875;28;20572;-66
2022/06/08 12:24:41;;;;;;;1.33;0.80;;;19.70;99.90;;;;;;4991612;28;20038;-66
2022/06/08 12:27:18;;;;;;;4.47;0.70;;;19.60;99.90;;;;;;4981893;28;20142;-65
2022/06/08 12:29:58;;;;;;;2.47;0.50;;;19.70;99.90;;;;;;4989671;28;20058;-65
2022/06/08 12:32:26;;;;;;;5.63;1.40;;;19.80;99.90;;;;;;4992076;28;20035;-65
2022/06/08 12:35:04;;;;;;;1.55;0.60;;;19.80;99.90;;;;;;4990915;28;20058;-65
2022/06/08 12:37:42;;;;;;;1.50;0.90;;;19.70;99.90;;;;;;4992678;28;20062;-66
2022/06/08 12:40:17;;;;;;;1.42;0.63;;;19.70;99.90;;;;;;4993858;28;20743;-65
2022/06/08 12:42:59;;;;;;;3.13;0.70;;;19.60;99.90;;;;;;4995543;28;20089;-65
2022/06/08 12:45:33;;;;;;;2.45;0.75;;;19.40;99.90;;;;;;4995626;28;20073;-65
2022/06/08 12:48:16;;;;;;;0.98;0.60;;;19.50;99.90;;;;;;4995559;28;20106;-65
2022/06/08 12:50:42;;;;;;;5.32;0.63;;;19.50;99.90;;;;;;4995187;28;20050;-65
2022/06/08 12:53:08;;;;;;;5.00;1.00;;;20.20;99.90;;;;;;4995736;28;20106;-65
2022/06/08 12:55:36;;;;;;;1.58;0.60;;;20.20;99.90;;;;;;4994390;28;20077;-66
2022/06/08 12:58:02;;;;;;;1.90;0.63;;;20.80;99.90;;;;;;4993504;28;20505;-65
2022/06/08 13:00:30;;;;;;;1.90;0.60;;;21.20;99.90;;;;;;4995182;28;20050;-66
2022/06/08 13:02:59;;;;;;;2.50;0.75;;;21.40;99.90;;;;;;4995882;28;20027;-66
2022/06/08 13:05:29;;;;;;;1.15;0.65;;;21.20;99.90;;;;;;4997050;28;20038;-66
2022/06/08 13:07:56;;;;;;;2.92;0.50;;;21.20;99.90;;;;;;4994865;28;20038;-65
2022/06/08 13:10:23;;;;;;;0.70;0.40;;;21.30;99.90;;;;;;4994410;28;20038;-66
2022/06/08 13:12:54;;;;;;;0.57;0.30;;;21.50;99.90;;;;;;4995400;28;20042;-66
2022/06/08 13:15:21;;;;;;;;;;;21.30;99.90;;;;;;4997642;28;20494;-66
2022/06/08 13:17:48;;;;;;;1.10;0.70;;;21.30;99.90;;;;;;4995964;28;20357;-66
2022/06/08 13:20:17;;;;;;;3.25;0.32;;;21.90;99.90;;;;;;4995466;28;20525;-66
2022/06/08 13:22:44;;;;;;;0.90;0.32;;;21.60;99.90;;;;;;4994251;28;20457;-66
2022/06/08 13:25:14;;;;;;;1.55;0.32;;;21.30;99.90;;;;;;4993298;28;20098;-65
2022/06/08 13:27:39;;;;;;;1.08;0.40;;;22.10;99.90;;;;;;4993247;28;20160;-65